Time;durP1;ratioP1;P1;durP2;ratioP2;P2;SDS_P1;SDS_P2;PMS_P1;PMS_P2;Temp;Humidity;BMP_temperature;BMP_pressure;BME280_temperature;BME280_humidity;BME280_pressure;Samples;Min_cycle;Max_cycle;Signal;HPM_P1;HPM_P2
2021/01/30 00:00:07;;;;;;;7.97;2.30;;;3.00;99.90;;;;;;5028242;28;20021;-78
2021/01/30 00:02:33;;;;;;;6.25;1.90;;;3.10;99.90;;;;;;5021995;28;20025;-78
2021/01/30 00:04:59;;;;;;;5.85;2.20;;;3.10;99.90;;;;;;5023702;28;20029;-76
2021/01/30 00:07:25;;;;;;;6.35;2.53;;;3.10;99.90;;;;;;5019359;28;20076;-78
2021/01/30 00:09:50;;;;;;;7.78;2.20;;;3.10;99.90;;;;;;5022592;28;20069;-78
2021/01/30 00:12:16;;;;;;;15.05;2.88;;;3.10;99.90;;;;;;5020540;28;20033;-79
2021/01/30 00:14:42;;;;;;;2.17;1.83;;;3.10;99.90;;;;;;5019589;28;20026;-79
2021/01/30 00:17:08;;;;;;;4.43;1.60;;;3.10;99.90;;;;;;5021218;28;20482;-77
2021/01/30 00:19:35;;;;;;;3.47;1.70;;;3.10;99.90;;;;;;5031547;28;20194;-77
2021/01/30 00:22:15;;;;;;;9.45;1.98;;;3.00;99.90;;;;;;5035931;28;20018;-78
2021/01/30 00:24:43;;;;;;;8.27;2.13;;;3.00;99.90;;;;;;5034508;28;20029;-80
2021/01/30 00:27:11;;;;;;;5.68;1.73;;;3.00;99.90;;;;;;5032747;28;20040;-81
2021/01/30 00:29:38;;;;;;;2.03;1.65;;;2.90;99.90;;;;;;5015155;28;20065;-80
2021/01/30 00:32:04;;;;;;;2.63;1.60;;;3.00;99.90;;;;;;5024350;28;20505;-81
2021/01/30 00:34:34;;;;;;;3.20;1.80;;;2.90;99.90;;;;;;5033281;28;20040;-82
2021/01/30 00:37:22;;;;;;;4.25;1.73;;;2.90;99.90;;;;;;5020767;28;20060;-80
2021/01/30 00:39:52;;;;;;;3.90;1.70;;;2.80;99.90;;;;;;5025154;28;20114;-81
2021/01/30 00:42:21;;;;;;;8.93;2.58;;;2.80;99.90;;;;;;5016970;28;20034;-80
2021/01/30 00:44:47;;;;;;;5.10;2.10;;;2.90;99.90;;;;;;5015863;28;20026;-80
2021/01/30 00:47:13;;;;;;;3.97;2.50;;;2.80;99.90;;;;;;5023148;28;20037;-80
2021/01/30 00:49:41;;;;;;;2.40;2.20;;;2.80;99.90;;;;;;5018204;28;20500;-79
2021/01/30 00:52:07;;;;;;;2.35;2.15;;;2.70;99.90;;;;;;5020467;28;20025;-79
2021/01/30 00:54:32;;;;;;;2.63;2.40;;;2.60;99.90;;;;;;5015997;28;20112;-79
2021/01/30 00:56:58;;;;;;;3.28;2.38;;;2.60;99.90;;;;;;5030486;28;20116;-79
2021/01/30 00:59:24;;;;;;;6.00;2.75;;;2.60;99.90;;;;;;5030090;28;20153;-78
2021/01/30 01:01:50;;;;;;;5.75;2.80;;;2.70;99.90;;;;;;5024551;28;20113;-79
2021/01/30 01:04:17;;;;;;;2.65;2.42;;;2.70;99.90;;;;;;5021037;28;20022;-78
2021/01/30 01:06:42;;;;;;;3.30;3.00;;;2.60;99.90;;;;;;5019706;28;20032;-80
2021/01/30 01:09:10;;;;;;;4.70;2.88;;;2.60;99.90;;;;;;5017421;28;20401;-80
2021/01/30 01:11:37;;;;;;;4.18;3.40;;;2.60;99.90;;;;;;5019746;28;20097;-79
2021/01/30 01:14:04;;;;;;;5.78;3.58;;;2.60;99.90;;;;;;5025386;28;20037;-76
2021/01/30 01:16:30;;;;;;;4.35;3.05;;;2.60;99.90;;;;;;5019313;28;20374;-81
2021/01/30 01:18:55;;;;;;;4.78;3.22;;;2.60;99.90;;;;;;5023279;28;20036;-77
2021/01/30 01:21:21;;;;;;;5.75;2.90;;;2.50;99.90;;;;;;5024110;28;20037;-77
2021/01/30 01:23:47;;;;;;;3.33;3.03;;;2.50;99.90;;;;;;5034858;28;20373;-78
2021/01/30 01:26:14;;;;;;;5.20;4.20;;;2.50;99.90;;;;;;5018057;28;20080;-79
2021/01/30 01:28:41;;;;;;;4.53;3.38;;;2.40;99.90;;;;;;5023294;28;20022;-78
2021/01/30 01:31:07;;;;;;;4.70;3.58;;;2.30;99.90;;;;;;5020036;28;20088;-78
2021/01/30 01:33:33;;;;;;;5.28;3.72;;;2.30;99.90;;;;;;5029138;28;20112;-78
2021/01/30 01:35:59;;;;;;;6.97;4.43;;;2.30;99.90;;;;;;5022906;28;20562;-78
2021/01/30 01:38:25;;;;;;;6.43;3.83;;;2.20;99.90;;;;;;5030953;28;20029;-77
2021/01/30 01:40:51;;;;;;;6.43;4.28;;;2.20;99.90;;;;;;5019007;28;20026;-76
2021/01/30 01:43:20;;;;;;;5.30;4.30;;;2.20;99.90;;;;;;5029159;28;20033;-76
2021/01/30 01:46:07;;;;;;;5.32;4.03;;;2.20;99.90;;;;;;5026659;28;20017;-77
2021/01/30 01:48:36;;;;;;;7.32;4.47;;;2.30;99.90;;;;;;5033472;28;20079;-76
2021/01/30 01:51:06;;;;;;;5.00;4.10;;;2.30;99.90;;;;;;5033199;28;20429;-76
2021/01/30 01:53:35;;;;;;;5.18;4.25;;;2.20;99.90;;;;;;5021559;28;20029;-77
2021/01/30 01:56:15;;;;;;;5.50;3.80;;;2.20;99.90;;;;;;5013996;28;20099;-76
2021/01/30 01:58:45;;;;;;;4.57;3.83;;;2.20;99.90;;;;;;5027149;28;20035;-75
2021/01/30 02:01:11;;;;;;;5.88;3.92;;;2.10;99.90;;;;;;5030136;28;20024;-76
2021/01/30 02:03:40;;;;;;;6.57;3.95;;;2.10;99.90;;;;;;5018362;28;20025;-76
2021/01/30 02:06:05;;;;;;;7.13;3.65;;;2.10;99.90;;;;;;5024921;28;20024;-77
2021/01/30 02:08:34;;;;;;;5.75;3.63;;;2.20;99.90;;;;;;5029214;28;20041;-76
2021/01/30 02:11:00;;;;;;;5.93;4.00;;;2.20;99.90;;;;;;5024818;28;20620;-77
2021/01/30 02:13:35;;;;;;;6.00;4.13;;;2.10;99.90;;;;;;5016765;28;20030;-76
2021/01/30 02:16:40;;;;;;;6.97;4.00;;;2.20;99.90;;;;;;5031490;28;20043;-77
2021/01/30 02:19:39;;;;;;;5.32;4.13;;;2.10;99.90;;;;;;5016408;28;20058;-76
2021/01/30 02:22:43;;;;;;;4.78;3.78;;;2.10;99.90;;;;;;5028289;28;20042;-76
2021/01/30 02:25:28;;;;;;;5.47;4.75;;;1.90;99.90;;;;;;5020306;28;20497;-77
2021/01/30 02:28:12;;;;;;;4.95;3.97;;;1.90;99.90;;;;;;5013613;28;20040;-77
2021/01/30 02:30:59;;;;;;;5.00;4.07;;;1.90;99.90;;;;;;5013744;28;20148;-77
2021/01/30 02:33:45;;;;;;;5.77;4.23;;;2.00;99.90;;;;;;5012936;28;20521;-77
2021/01/30 02:36:26;;;;;;;5.40;4.00;;;2.00;99.90;;;;;;5025833;28;20029;-76
2021/01/30 02:39:21;;;;;;;7.38;5.10;;;2.10;99.90;;;;;;5014411;28;20065;-76
2021/01/30 02:41:52;;;;;;;11.90;5.45;;;2.20;99.90;;;;;;5019933;28;20033;-77
2021/01/30 02:44:19;;;;;;;8.48;4.28;;;2.10;99.90;;;;;;5029530;28;20474;-77
2021/01/30 02:46:52;;;;;;;6.53;4.93;;;2.10;99.90;;;;;;5025101;28;20040;-76
2021/01/30 02:49:24;;;;;;;6.15;4.72;;;2.10;99.90;;;;;;5028167;28;20160;-76
2021/01/30 02:52:01;;;;;;;6.72;5.13;;;1.90;99.90;;;;;;5024264;28;20397;-77
2021/01/30 02:54:29;;;;;;;6.45;5.10;;;2.00;99.90;;;;;;5024639;28;20514;-76
2021/01/30 02:56:57;;;;;;;5.47;4.18;;;2.10;99.90;;;;;;5030058;28;20092;-76
2021/01/30 02:59:26;;;;;;;7.22;4.50;;;2.10;99.90;;;;;;5018613;28;20054;-77
2021/01/30 03:01:52;;;;;;;6.03;4.22;;;2.10;99.90;;;;;;5032176;28;20035;-76
2021/01/30 03:04:26;;;;;;;6.07;4.53;;;2.20;99.90;;;;;;5013468;28;20025;-76
2021/01/30 03:07:00;;;;;;;5.10;4.28;;;2.20;99.90;;;;;;5023300;28;20466;-76
2021/01/30 03:10:16;;;;;;;6.15;4.45;;;2.20;99.90;;;;;;5032925;28;20029;-76
2021/01/30 03:13:08;;;;;;;5.07;4.18;;;2.30;99.90;;;;;;4972236;28;20042;-77
2021/01/30 03:15:48;;;;;;;6.50;4.70;;;2.30;99.90;;;;;;5025426;28;20045;-76
2021/01/30 03:18:17;;;;;;;5.03;4.53;;;2.30;99.90;;;;;;5019341;28;20025;-77
2021/01/30 03:20:45;;;;;;;7.88;5.18;;;2.30;99.90;;;;;;5031374;28;20064;-75
2021/01/30 03:23:14;;;;;;;6.97;4.97;;;2.30;99.90;;;;;;5025370;28;20022;-75
2021/01/30 03:25:42;;;;;;;7.85;4.68;;;2.20;99.90;;;;;;5018739;28;20021;-75
2021/01/30 03:28:11;;;;;;;7.57;5.45;;;2.30;99.90;;;;;;5020882;28;20554;-75
2021/01/30 03:30:36;;;;;;;5.50;4.40;;;2.20;99.90;;;;;;5012022;28;20116;-75
2021/01/30 03:33:04;;;;;;;5.93;4.72;;;2.30;99.90;;;;;;5013561;28;20057;-75
2021/01/30 03:35:31;;;;;;;7.75;4.70;;;2.30;99.90;;;;;;5011604;28;20497;-75
2021/01/30 03:37:56;;;;;;;5.00;4.47;;;2.30;99.90;;;;;;5028386;28;20109;-75
2021/01/30 03:40:23;;;;;;;5.65;4.18;;;2.30;99.90;;;;;;5024572;28;20030;-75
2021/01/30 03:42:49;;;;;;;5.60;4.68;;;2.30;99.90;;;;;;5019852;28;20545;-76
2021/01/30 03:45:18;;;;;;;7.03;3.90;;;2.10;99.90;;;;;;5018248;28;20073;-75
2021/01/30 03:47:44;;;;;;;6.57;4.07;;;2.00;99.90;;;;;;5024805;28;20042;-76
2021/01/30 03:50:11;;;;;;;5.03;3.92;;;2.00;99.90;;;;;;5025320;28;20104;-75
2021/01/30 03:52:37;;;;;;;9.10;4.50;;;2.00;99.90;;;;;;5012783;28;20543;-76
2021/01/30 03:55:04;;;;;;;5.70;4.40;;;2.10;99.90;;;;;;5025821;28;20030;-77
2021/01/30 03:57:29;;;;;;;7.18;4.45;;;2.10;99.90;;;;;;5023799;28;20359;-76
2021/01/30 03:59:55;;;;;;;6.07;4.50;;;2.10;99.90;;;;;;5034361;28;20117;-77
2021/01/30 04:02:20;;;;;;;4.88;4.32;;;2.20;99.90;;;;;;5029702;28;20103;-77
2021/01/30 04:04:47;;;;;;;6.00;4.70;;;2.10;99.90;;;;;;5034586;28;20100;-76
2021/01/30 04:07:14;;;;;;;8.88;4.90;;;2.10;99.90;;;;;;5034162;28;20045;-77
2021/01/30 04:09:39;;;;;;;5.55;4.47;;;2.00;99.90;;;;;;5015552;28;20025;-77
2021/01/30 04:12:06;;;;;;;4.07;3.67;;;2.00;99.90;;;;;;5029229;28;20141;-76
2021/01/30 04:14:32;;;;;;;4.30;3.60;;;2.00;99.90;;;;;;5016810;28;20026;-77
2021/01/30 04:16:58;;;;;;;4.18;3.13;;;2.00;99.90;;;;;;5030749;28;20101;-77
2021/01/30 04:19:24;;;;;;;4.20;3.25;;;1.90;99.90;;;;;;5021721;28;20112;-77
2021/01/30 04:21:49;;;;;;;5.82;3.00;;;1.90;99.90;;;;;;5022955;28;20041;-77
2021/01/30 04:24:15;;;;;;;3.47;3.10;;;1.90;99.90;;;;;;5021774;28;20030;-76
2021/01/30 04:26:45;;;;;;;3.25;2.63;;;1.90;99.90;;;;;;5023768;28;20461;-76
2021/01/30 04:29:10;;;;;;;4.60;3.55;;;1.80;99.90;;;;;;5025843;28;20108;-76
2021/01/30 04:31:36;;;;;;;6.32;3.03;;;1.80;99.90;;;;;;5015989;28;20454;-76
2021/01/30 04:34:02;;;;;;;3.08;2.67;;;1.70;99.90;;;;;;5013832;28;20034;-77
2021/01/30 04:36:27;;;;;;;4.15;2.83;;;1.60;99.90;;;;;;5020362;28;20548;-77
2021/01/30 04:38:53;;;;;;;3.90;3.08;;;1.70;99.90;;;;;;5029478;28;20034;-77
2021/01/30 04:41:27;;;;;;;3.70;3.20;;;1.60;99.90;;;;;;5026115;28;20438;-76
2021/01/30 04:44:13;;;;;;;3.40;2.70;;;1.60;99.90;;;;;;5034886;28;20422;-77
2021/01/30 04:46:41;;;;;;;3.30;2.55;;;1.50;99.90;;;;;;5020793;28;20022;-77
2021/01/30 04:49:45;;;;;;;4.75;2.90;;;1.40;99.90;;;;;;5027512;28;20088;-76
2021/01/30 04:52:24;;;;;;;3.42;2.72;;;1.50;99.90;;;;;;5021606;28;20163;-77
2021/01/30 04:55:33;;;;;;;2.83;2.60;;;1.50;99.90;;;;;;5032146;28;20037;-77
2021/01/30 04:58:16;;;;;;;4.18;3.42;;;1.40;99.90;;;;;;5013650;28;20069;-77
2021/01/30 05:01:00;;;;;;;3.92;2.45;;;1.40;99.90;;;;;;5018683;28;20014;-77
2021/01/30 05:03:50;;;;;;;4.80;2.80;;;1.40;99.90;;;;;;5025060;28;20084;-76
2021/01/30 05:06:21;;;;;;;2.80;2.30;;;1.30;99.90;;;;;;5032814;28;20037;-76
2021/01/30 05:08:55;;;;;;;3.72;3.17;;;1.40;99.90;;;;;;5031324;28;20087;-76
2021/01/30 05:11:26;;;;;;;4.82;2.58;;;1.40;99.90;;;;;;5018676;28;20034;-76
2021/01/30 05:13:57;;;;;;;3.55;3.00;;;1.40;99.90;;;;;;5015585;28;20478;-77
2021/01/30 05:16:31;;;;;;;3.58;2.88;;;1.40;99.90;;;;;;5033925;28;20037;-76
2021/01/30 05:19:02;;;;;;;5.50;2.83;;;1.30;99.90;;;;;;5015247;28;20026;-77
2021/01/30 05:21:49;;;;;;;4.22;2.72;;;1.20;99.90;;;;;;5015561;28;20052;-76
2021/01/30 05:24:16;;;;;;;3.60;3.00;;;1.20;99.90;;;;;;5013600;28;20041;-76
2021/01/30 05:26:51;;;;;;;4.68;3.30;;;1.10;99.90;;;;;;5017839;28;20030;-77
2021/01/30 05:29:29;;;;;;;4.47;2.60;;;1.10;99.90;;;;;;5021846;28;20037;-77
2021/01/30 05:32:20;;;;;;;5.75;3.28;;;1.20;99.90;;;;;;5015592;28;20026;-76
2021/01/30 05:34:51;;;;;;;5.65;3.05;;;1.20;99.90;;;;;;5029415;28;20034;-76
2021/01/30 05:37:37;;;;;;;5.38;2.90;;;1.30;99.90;;;;;;5029526;28;20460;-75
2021/01/30 05:40:09;;;;;;;4.13;2.85;;;1.30;99.90;;;;;;5016655;28;20065;-75
2021/01/30 05:42:50;;;;;;;3.90;2.70;;;1.30;99.90;;;;;;5018892;28;20117;-76
2021/01/30 05:45:18;;;;;;;4.82;3.05;;;1.30;99.90;;;;;;5019688;28;20026;-76
2021/01/30 05:47:49;;;;;;;5.57;3.42;;;1.30;99.90;;;;;;5013283;28;20038;-76
2021/01/30 05:50:21;;;;;;;4.47;2.83;;;1.20;99.90;;;;;;5020541;28;20108;-78
2021/01/30 05:52:47;;;;;;;4.13;2.72;;;1.20;99.90;;;;;;5024639;28;20483;-76
2021/01/30 05:55:30;;;;;;;2.90;2.50;;;1.10;99.90;;;;;;5020289;28;20025;-76
2021/01/30 05:57:57;;;;;;;5.00;3.08;;;1.20;99.90;;;;;;5015792;28;20033;-75
2021/01/30 06:00:24;;;;;;;4.65;3.10;;;1.20;99.90;;;;;;5027199;28;20021;-75
2021/01/30 06:03:14;;;;;;;4.30;3.00;;;1.20;99.90;;;;;;5026140;28;20504;-75
2021/01/30 06:05:53;;;;;;;3.90;2.67;;;1.20;99.90;;;;;;5032175;28;20569;-77
2021/01/30 06:08:29;;;;;;;5.10;3.05;;;1.20;99.90;;;;;;5023611;28;20083;-77
2021/01/30 06:11:13;;;;;;;3.83;2.63;;;1.20;99.90;;;;;;5048019;28;20029;-77
2021/01/30 06:13:57;;;;;;;3.90;2.58;;;1.20;99.90;;;;;;5023651;28;20029;-78
2021/01/30 06:16:46;;;;;;;9.27;4.85;;;1.30;99.90;;;;;;5018050;28;20022;-77
2021/01/30 06:19:23;;;;;;;5.82;3.20;;;1.30;99.90;;;;;;5027025;28;20510;-77
2021/01/30 06:22:09;;;;;;;4.60;2.58;;;1.20;99.90;;;;;;5033803;28;20053;-76
2021/01/30 06:24:35;;;;;;;4.55;3.30;;;1.20;99.90;;;;;;5027155;28;20043;-76
2021/01/30 06:27:11;;;;;;;4.13;2.90;;;1.20;99.90;;;;;;5015081;28;20542;-77
2021/01/30 06:29:43;;;;;;;5.60;3.47;;;1.30;99.90;;;;;;5024758;28;20018;-77
2021/01/30 06:32:21;;;;;;;4.38;3.00;;;1.30;99.90;;;;;;5032889;28;20030;-76
2021/01/30 06:34:52;;;;;;;4.57;3.22;;;1.30;99.90;;;;;;5018184;28;20035;-76
2021/01/30 06:37:43;;;;;;;4.10;2.80;;;1.30;99.90;;;;;;5032094;28;20374;-77
2021/01/30 06:40:31;;;;;;;4.47;3.25;;;1.40;99.90;;;;;;5030396;28;20030;-77
2021/01/30 06:43:36;;;;;;;5.28;3.08;;;1.40;99.90;;;;;;5028256;28;20032;-76
2021/01/30 06:46:17;;;;;;;5.25;3.03;;;1.40;99.90;;;;;;5018449;28;20038;-78
2021/01/30 06:48:48;;;;;;;5.57;3.47;;;1.50;99.90;;;;;;5029308;28;20025;-77
2021/01/30 06:51:35;;;;;;;4.88;3.53;;;1.50;99.90;;;;;;5022175;28;20021;-78
2021/01/30 06:54:32;;;;;;;4.50;3.25;;;1.50;99.90;;;;;;5012333;28;20419;-77
2021/01/30 06:57:11;;;;;;;4.90;3.50;;;1.50;99.90;;;;;;5011353;28;20044;-78
2021/01/30 07:00:12;;;;;;;4.80;3.17;;;1.60;99.90;;;;;;5029917;28;20025;-77
2021/01/30 07:02:41;;;;;;;4.97;3.28;;;1.60;99.90;;;;;;5030927;28;20037;-76
2021/01/30 07:05:46;;;;;;;4.57;2.97;;;1.60;99.90;;;;;;5029647;28;20192;-76
2021/01/30 07:09:05;;;;;;;5.07;3.40;;;1.70;99.90;;;;;;5022371;28;20104;-76
2021/01/30 07:12:01;;;;;;;5.20;3.45;;;1.70;99.90;;;;;;4992807;28;20037;-77
2021/01/30 07:14:53;;;;;;;8.18;3.53;;;1.70;99.90;;;;;;5014737;28;20041;-77
2021/01/30 07:17:48;;;;;;;5.75;3.47;;;1.70;99.90;;;;;;5012566;28;20026;-76
2021/01/30 07:20:32;;;;;;;3.42;2.90;;;1.80;99.90;;;;;;5015613;28;20034;-76
2021/01/30 07:23:14;;;;;;;6.22;3.05;;;1.70;99.90;;;;;;5014268;28;20067;-79
2021/01/30 07:25:55;;;;;;;3.72;2.65;;;1.70;99.90;;;;;;5029107;28;20034;-78
2021/01/30 07:28:40;;;;;;;3.33;2.42;;;1.60;99.90;;;;;;5026322;28;20030;-78
2021/01/30 07:31:29;;;;;;;3.50;2.40;;;1.60;99.90;;;;;;5017026;28;20088;-76
2021/01/30 07:34:08;;;;;;;4.57;3.08;;;1.60;99.90;;;;;;5014279;28;20037;-78
2021/01/30 07:36:37;;;;;;;6.10;3.55;;;1.70;99.90;;;;;;5017203;28;20018;-77
2021/01/30 07:39:18;;;;;;;7.03;3.65;;;1.70;99.90;;;;;;5024808;28;20466;-77
2021/01/30 07:41:52;;;;;;;4.07;3.13;;;1.70;99.90;;;;;;5026376;28;20172;-77
2021/01/30 07:44:31;;;;;;;5.57;3.17;;;1.70;99.90;;;;;;5028786;28;20040;-77
2021/01/30 07:47:14;;;;;;;5.45;3.28;;;1.70;99.90;;;;;;5017364;28;20029;-77
2021/01/30 07:49:44;;;;;;;3.70;2.88;;;1.70;99.90;;;;;;5020055;28;20029;-77
2021/01/30 07:52:17;;;;;;;7.22;3.40;;;1.80;99.90;;;;;;5018779;28;20022;-76
2021/01/30 07:54:53;;;;;;;4.70;2.70;;;1.80;99.90;;;;;;5031791;28;20025;-77
2021/01/30 07:57:46;;;;;;;3.22;2.63;;;1.80;99.90;;;;;;5016951;28;20406;-76
2021/01/30 08:00:15;;;;;;;4.28;3.42;;;1.70;99.90;;;;;;5026634;28;20036;-76
2021/01/30 08:02:53;;;;;;;3.80;2.75;;;1.70;99.90;;;;;;5031628;28;20033;-76
2021/01/30 08:05:18;;;;;;;5.53;3.22;;;1.60;99.90;;;;;;5035174;28;20111;-78
2021/01/30 08:08:02;;;;;;;5.43;3.40;;;1.60;99.90;;;;;;5016932;28;20482;-78
2021/01/30 08:10:31;;;;;;;4.15;3.00;;;1.60;99.90;;;;;;5025564;28;20021;-76
2021/01/30 08:12:56;;;;;;;6.60;3.22;;;1.70;99.90;;;;;;5027410;28;20042;-76
2021/01/30 08:15:33;;;;;;;4.93;3.00;;;1.70;99.90;;;;;;5046999;28;20029;-77
2021/01/30 08:18:26;;;;;;;5.88;2.90;;;1.70;99.90;;;;;;5027651;28;20495;-77
2021/01/30 08:21:21;;;;;;;6.15;2.88;;;1.70;99.90;;;;;;5024613;28;20096;-77
2021/01/30 08:23:49;;;;;;;4.13;3.00;;;1.70;99.90;;;;;;5014702;28;20132;-77
2021/01/30 08:26:34;;;;;;;5.82;3.58;;;1.70;99.90;;;;;;5030643;28;20033;-76
2021/01/30 08:29:14;;;;;;;4.60;3.47;;;1.70;99.90;;;;;;5016801;28;20038;-77
2021/01/30 08:31:52;;;;;;;6.03;3.72;;;1.70;99.90;;;;;;5024842;28;20022;-76
2021/01/30 08:34:17;;;;;;;5.88;4.15;;;1.80;99.90;;;;;;5029742;28;20029;-76
2021/01/30 08:36:46;;;;;;;6.32;3.60;;;1.80;99.90;;;;;;5024185;28;20580;-77
2021/01/30 08:39:33;;;;;;;3.90;3.25;;;1.90;99.90;;;;;;5021824;28;20117;-77
2021/01/30 08:42:16;;;;;;;6.38;3.90;;;1.90;99.90;;;;;;5031273;28;20034;-77
2021/01/30 08:45:09;;;;;;;10.35;4.07;;;2.00;99.90;;;;;;5021383;28;20079;-77
2021/01/30 08:47:55;;;;;;;10.45;4.03;;;2.00;99.90;;;;;;5032620;28;20029;-78
2021/01/30 08:50:30;;;;;;;4.50;3.45;;;2.00;99.90;;;;;;5018428;28;20029;-77
2021/01/30 08:53:14;;;;;;;7.10;4.28;;;2.00;99.90;;;;;;5019970;28;20017;-78
2021/01/30 08:55:43;;;;;;;7.68;5.05;;;2.00;99.90;;;;;;5016049;28;20029;-77
2021/01/30 08:58:32;;;;;;;10.65;4.45;;;2.00;99.90;;;;;;5026523;28;20030;-78
2021/01/30 09:00:58;;;;;;;7.88;4.35;;;2.00;99.90;;;;;;5027682;28;20041;-77
2021/01/30 09:03:44;;;;;;;5.28;3.88;;;2.10;99.90;;;;;;5017883;28;20033;-78
2021/01/30 09:06:30;;;;;;;9.30;4.57;;;2.10;99.90;;;;;;5025933;28;20064;-77
2021/01/30 09:09:16;;;;;;;7.95;4.55;;;2.20;99.90;;;;;;5026871;28;20046;-77
2021/01/30 09:11:56;;;;;;;8.75;4.85;;;2.20;99.90;;;;;;5015781;28;20022;-77
2021/01/30 09:14:21;;;;;;;7.93;4.57;;;2.10;99.90;;;;;;5021222;28;20018;-77
2021/01/30 09:16:54;;;;;;;7.40;4.15;;;2.10;99.90;;;;;;5018687;28;20029;-77
2021/01/30 09:19:41;;;;;;;7.43;4.28;;;2.20;99.90;;;;;;5023358;28;20025;-78
2021/01/30 09:22:40;;;;;;;8.45;4.82;;;2.20;99.90;;;;;;5023825;28;20038;-78
2021/01/30 09:25:34;;;;;;;9.60;4.10;;;2.20;99.90;;;;;;5019205;28;20034;-77
2021/01/30 09:28:13;;;;;;;6.00;4.07;;;2.20;99.90;;;;;;5027569;28;20038;-77
2021/01/30 09:30:53;;;;;;;8.82;3.83;;;2.20;99.90;;;;;;5024182;28;20172;-78
2021/01/30 09:33:31;;;;;;;3.80;2.75;;;2.20;99.90;;;;;;5019803;28;20028;-77
2021/01/30 09:36:24;;;;;;;6.32;4.18;;;2.20;99.90;;;;;;5026622;28;20105;-77
2021/01/30 09:38:58;;;;;;;6.72;4.07;;;2.10;99.90;;;;;;5012186;28;20498;-77
2021/01/30 09:41:31;;;;;;;6.70;3.90;;;2.10;99.90;;;;;;5019265;28;20045;-77
2021/01/30 09:44:26;;;;;;;7.43;4.00;;;2.20;99.90;;;;;;5017746;28;20026;-77
2021/01/30 09:46:58;;;;;;;7.07;3.92;;;2.10;99.90;;;;;;5013864;28;20025;-78
2021/01/30 09:49:27;;;;;;;6.95;3.75;;;2.20;99.90;;;;;;5029103;28;20029;-78
2021/01/30 09:51:55;;;;;;;6.95;3.92;;;2.20;99.90;;;;;;5024273;28;20025;-77
2021/01/30 09:54:24;;;;;;;6.05;4.18;;;2.20;99.90;;;;;;5019275;28;20051;-78
2021/01/30 09:56:53;;;;;;;6.00;3.47;;;2.30;99.90;;;;;;5033974;28;20022;-77
2021/01/30 09:59:24;;;;;;;6.78;3.92;;;2.40;99.90;;;;;;5014893;28;20030;-77
2021/01/30 10:01:50;;;;;;;4.93;3.83;;;2.50;99.90;;;;;;5017800;28;20026;-77
2021/01/30 10:04:22;;;;;;;5.93;3.92;;;2.70;99.90;;;;;;5035892;28;20152;-77
2021/01/30 10:06:50;;;;;;;6.82;4.28;;;2.60;99.90;;;;;;5026882;28;20099;-78
2021/01/30 10:09:22;;;;;;;5.05;3.35;;;2.60;99.90;;;;;;5031591;28;20036;-77
2021/01/30 10:11:58;;;;;;;5.95;3.40;;;2.60;99.90;;;;;;5022248;28;20079;-77
2021/01/30 10:14:33;;;;;;;6.28;3.53;;;2.70;99.90;;;;;;5023954;28;20088;-76
2021/01/30 10:17:06;;;;;;;6.63;3.67;;;2.70;99.90;;;;;;5015127;28;20030;-77
2021/01/30 10:19:35;;;;;;;5.90;3.63;;;2.80;99.90;;;;;;5023939;28;20553;-77
2021/01/30 10:22:18;;;;;;;5.90;3.85;;;2.70;99.90;;;;;;5025424;28;20092;-77
2021/01/30 10:24:45;;;;;;;4.55;2.97;;;2.70;99.90;;;;;;5031260;28;20049;-77
2021/01/30 10:27:24;;;;;;;4.97;3.35;;;2.70;99.90;;;;;;5028995;28;20025;-77
2021/01/30 10:29:52;;;;;;;5.10;3.20;;;2.80;99.90;;;;;;5023997;28;20025;-76
2021/01/30 10:32:21;;;;;;;4.25;3.30;;;2.80;99.90;;;;;;5024869;28;20013;-77
2021/01/30 10:34:56;;;;;;;11.32;4.95;;;2.90;99.90;;;;;;5029455;28;20025;-77
2021/01/30 10:37:39;;;;;;;5.03;3.55;;;3.00;99.90;;;;;;5031541;28;20044;-76
2021/01/30 10:40:10;;;;;;;6.07;3.78;;;3.00;99.90;;;;;;5021683;28;20030;-77
2021/01/30 10:42:38;;;;;;;5.05;2.78;;;3.00;99.90;;;;;;5023431;28;20024;-76
2021/01/30 10:45:16;;;;;;;6.07;3.30;;;3.00;99.90;;;;;;5025107;28;20052;-77
2021/01/30 10:47:42;;;;;;;;;;;3.10;99.90;;;;;;5022257;28;20022;-78
2021/01/30 10:50:19;;;;;;;4.05;3.05;;;3.10;99.90;;;;;;5025753;28;19917;-77
2021/01/30 10:52:45;;;;;;;7.93;3.30;;;3.10;99.90;;;;;;5033871;28;20029;-77
2021/01/30 10:55:36;;;;;;;7.32;2.80;;;3.00;99.90;;;;;;5016392;28;20022;-77
2021/01/30 10:58:25;;;;;;;5.47;3.40;;;2.90;99.90;;;;;;5027766;28;20080;-76
2021/01/30 11:01:01;;;;;;;4.85;3.10;;;2.80;99.90;;;;;;5025938;28;20048;-77
2021/01/30 11:03:47;;;;;;;9.80;3.45;;;2.90;99.90;;;;;;5028317;28;20032;-75
2021/01/30 11:06:28;;;;;;;7.75;3.80;;;3.00;99.90;;;;;;5032627;28;20056;-75
2021/01/30 11:08:55;;;;;;;5.05;3.33;;;3.20;99.90;;;;;;5027057;28;20093;-76
2021/01/30 11:11:30;;;;;;;4.77;3.07;;;3.40;99.90;;;;;;5020482;28;20547;-76
2021/01/30 11:13:57;;;;;;;5.00;3.03;;;3.40;99.90;;;;;;5028547;28;20017;-74
2021/01/30 11:16:37;;;;;;;4.72;2.30;;;3.40;99.90;;;;;;5034169;28;20045;-75
2021/01/30 11:19:25;;;;;;;4.97;3.08;;;3.40;99.90;;;;;;5024385;28;20076;-75
2021/01/30 11:22:17;;;;;;;6.25;3.60;;;3.50;99.90;;;;;;5020336;28;20082;-76
2021/01/30 11:24:48;;;;;;;4.85;3.20;;;3.50;99.90;;;;;;5034384;28;20025;-75
2021/01/30 11:27:37;;;;;;;5.38;3.47;;;3.50;99.90;;;;;;5032823;28;20025;-76
2021/01/30 11:30:25;;;;;;;4.07;2.60;;;3.60;99.90;;;;;;5032251;28;20424;-76
2021/01/30 11:32:57;;;;;;;5.05;3.28;;;3.60;99.90;;;;;;5033305;28;20029;-77
2021/01/30 11:35:34;;;;;;;3.63;3.22;;;3.70;99.90;;;;;;5033545;28;20030;-75
2021/01/30 11:38:05;;;;;;;4.05;3.08;;;3.60;99.90;;;;;;5035524;28;20033;-77
2021/01/30 11:40:31;;;;;;;4.18;2.95;;;3.50;99.90;;;;;;5029041;28;20064;-76
2021/01/30 11:42:59;;;;;;;4.30;3.10;;;3.40;99.90;;;;;;5017729;28;20037;-76
2021/01/30 11:45:25;;;;;;;4.43;3.08;;;3.40;99.90;;;;;;5026943;28;20026;-76
2021/01/30 11:47:51;;;;;;;5.03;3.55;;;3.50;99.90;;;;;;5033967;28;20452;-76
2021/01/30 11:50:18;;;;;;;11.57;3.45;;;3.60;99.90;;;;;;5026029;28;20357;-77
2021/01/30 11:52:43;;;;;;;3.92;3.22;;;3.60;99.90;;;;;;5018607;28;20033;-76
2021/01/30 11:55:09;;;;;;;4.45;2.85;;;3.50;99.90;;;;;;5030321;28;20032;-76
2021/01/30 11:57:35;;;;;;;4.50;3.00;;;3.50;99.90;;;;;;5036396;28;20486;-76
2021/01/30 12:00:00;;;;;;;5.15;3.08;;;3.40;99.90;;;;;;5030599;28;20064;-76
2021/01/30 12:02:39;;;;;;;4.22;3.00;;;3.40;99.90;;;;;;5026988;28;20042;-77
2021/01/30 12:05:05;;;;;;;;;;;3.50;99.90;;;;;;5026174;28;20402;-76
2021/01/30 12:07:31;;;;;;;5.13;2.75;;;3.50;99.90;;;;;;5020544;28;20015;-76
2021/01/30 12:09:57;;;;;;;6.75;3.53;;;3.60;99.90;;;;;;5033334;28;20104;-76
2021/01/30 12:12:22;;;;;;;5.68;3.38;;;3.50;99.90;;;;;;5036266;28;20037;-77
2021/01/30 12:14:48;;;;;;;5.95;3.53;;;3.60;99.90;;;;;;5019594;28;20022;-76
2021/01/30 12:17:17;;;;;;;4.95;3.38;;;3.60;99.90;;;;;;5023483;28;20489;-77
2021/01/30 12:19:43;;;;;;;5.53;3.35;;;3.60;99.90;;;;;;5036359;28;20113;-76
2021/01/30 12:22:09;;;;;;;5.53;3.88;;;3.60;99.90;;;;;;5025673;28;20500;-75
2021/01/30 12:24:35;;;;;;;3.80;3.00;;;3.50;99.90;;;;;;5020353;28;20026;-77
2021/01/30 12:27:04;;;;;;;5.22;3.35;;;3.60;99.90;;;;;;5019678;28;20049;-76
2021/01/30 12:29:29;;;;;;;4.22;3.30;;;3.60;99.90;;;;;;5023347;28;20068;-76
2021/01/30 12:31:55;;;;;;;4.95;3.58;;;3.70;99.90;;;;;;5027735;28;20014;-76
2021/01/30 12:34:20;;;;;;;5.90;3.60;;;3.90;99.90;;;;;;5022536;28;20037;-77
2021/01/30 12:36:47;;;;;;;3.88;2.95;;;3.90;99.90;;;;;;5023172;28;20025;-78
2021/01/30 12:39:13;;;;;;;6.05;2.90;;;3.90;99.90;;;;;;5026360;28;20069;-78
2021/01/30 12:41:39;;;;;;;8.50;3.35;;;4.00;99.90;;;;;;5028895;28;20104;-75
2021/01/30 12:44:05;;;;;;;4.22;3.15;;;4.00;99.90;;;;;;5021970;28;20033;-75
2021/01/30 12:46:52;;;;;;;9.35;3.42;;;4.10;99.90;;;;;;5033473;28;20374;-77
2021/01/30 12:49:18;;;;;;;4.50;3.10;;;4.10;99.90;;;;;;5014076;28;20068;-77
2021/01/30 12:51:43;;;;;;;6.10;3.65;;;4.00;99.90;;;;;;5020120;28;20021;-77
2021/01/30 12:54:10;;;;;;;5.28;3.45;;;3.90;99.90;;;;;;5039953;28;20113;-77
2021/01/30 12:56:36;;;;;;;6.57;3.35;;;3.90;99.90;;;;;;5032504;28;20032;-77
2021/01/30 12:59:05;;;;;;;6.35;3.38;;;3.90;99.90;;;;;;5033669;28;20030;-77
2021/01/30 13:01:31;;;;;;;5.75;3.35;;;4.00;99.90;;;;;;5030800;28;20029;-77
2021/01/30 13:03:57;;;;;;;4.55;3.17;;;3.90;99.90;;;;;;5029222;28;20410;-77
2021/01/30 13:06:23;;;;;;;4.97;3.50;;;3.80;99.90;;;;;;5015803;28;20034;-77
2021/01/30 13:08:50;;;;;;;5.43;3.53;;;3.80;99.90;;;;;;5018434;28;20129;-77
2021/01/30 13:11:17;;;;;;;3.95;3.22;;;3.80;99.90;;;;;;5023689;28;20036;-77
2021/01/30 13:13:43;;;;;;;4.93;3.47;;;3.90;99.90;;;;;;5033079;28;20024;-77
2021/01/30 13:16:10;;;;;;;4.80;3.60;;;3.80;99.90;;;;;;5028100;28;20140;-75
2021/01/30 13:18:37;;;;;;;5.15;3.42;;;3.90;99.90;;;;;;5033796;28;20025;-77
2021/01/30 13:21:05;;;;;;;5.93;4.22;;;4.00;99.90;;;;;;5030264;28;20103;-77
2021/01/30 13:23:31;;;;;;;4.78;3.33;;;4.00;99.90;;;;;;5013528;28;20477;-77
2021/01/30 13:26:15;;;;;;;4.15;3.67;;;4.00;99.90;;;;;;5024617;28;20056;-78
2021/01/30 13:28:41;;;;;;;5.60;3.60;;;4.00;99.90;;;;;;5025737;28;20370;-78
2021/01/30 13:31:07;;;;;;;7.90;3.75;;;3.90;99.90;;;;;;5025113;28;20028;-76
2021/01/30 13:33:32;;;;;;;5.35;3.95;;;3.90;99.90;;;;;;5017744;28;20026;-77